Austin, Texas
Traffic Map
Current Weather Conditions
Austin, Texas
Clear
Clear
12°
Feels Like: 12°
Wind Chill: 12° Ceiling: Unl
Heat Index: 12° Visibility: 10mi
Dew Point: 12° Wind: 0mph
Humidity: 97% Direction: ° ()
Pressure: 29.68in Gusts: 0mph
Raw Report DataKATT 231251Z AUTO 00000KT 10SM CLR 12/12 A2968 RMK AO2 SLP047 T01220117
Traffic Incident Summary
Active as of:
Severity:
Category:
InformationThere was an issue retrieving the traffic information for this location. Please try a different location or try again shortly.
Advertisements
Track Severe Weather on mobile